Time;durP1;ratioP1;P1;durP2;ratioP2;P2;SDS_P1;SDS_P2;PMS_P1;PMS_P2;Temp;Humidity;BMP_temperature;BMP_pressure;BME280_temperature;BME280_humidity;BME280_pressure;Samples;Min_cycle;Max_cycle;Signal;HPM_P1;HPM_P2
2023/02/25 08:43:11;;;;;;;2.60;2.10;;;;;;;6.39;100.00;96842.23;102475;1294;601135;-76
2023/02/25 08:45:40;;;;;;;2.50;1.90;;;;;;;6.57;100.00;96848.14;104904;1268;59254;-76
2023/02/25 08:48:08;;;;;;;2.60;1.80;;;;;;;6.78;100.00;96848.96;105027;1266;59719;-76
2023/02/25 08:50:35;;;;;;;3.10;2.10;;;;;;;6.89;100.00;96849.09;104964;1265;64109;-76
2023/02/25 08:53:02;;;;;;;2.30;2.10;;;;;;;6.93;100.00;96849.84;104991;1265;60902;-75
2023/02/25 10:36:38;;;;;;;2.60;1.60;;;;;;;8.17;100.00;96826.77;102549;1291;600977;-77
2023/02/25 10:39:10;;;;;;;4.50;1.60;;;;;;;8.31;100.00;96830.94;104979;1270;59263;-75
2023/02/25 10:41:36;;;;;;;2.70;1.30;;;;;;;8.57;100.00;96824.47;105022;1268;59296;-75
2023/02/25 10:44:03;;;;;;;3.60;1.50;;;;;;;8.73;100.00;96823.73;105032;1268;63888;-76
2023/02/25 10:46:51;;;;;;;1.60;1.10;;;;;;;8.71;100.00;96829.92;105098;1268;61703;-75
2023/02/25 10:49:24;;;;;;;3.00;1.50;;;;;;;8.61;100.00;96827.67;105004;1263;133571;-75
2023/02/25 10:52:05;;;;;;;3.00;1.50;;;;;;;8.63;100.00;96829.73;105084;1266;59351;-76
2023/02/25 10:54:43;;;;;;;2.10;1.10;;;;;;;8.59;100.00;96833.84;105092;1261;59241;-75
2023/02/25 10:57:14;;;;;;;2.10;1.40;;;;;;;8.51;100.00;96835.45;104979;1264;65336;-76
2023/02/25 10:59:44;;;;;;;1.70;1.20;;;;;;;8.40;100.00;96840.23;105299;1265;60849;-75
2023/02/25 11:02:22;;;;;;;2.60;1.30;;;;;;;8.12;100.00;96842.90;105080;1267;65415;-75
2023/02/25 11:04:51;;;;;;;2.00;1.20;;;;;;;7.89;100.00;96837.58;105135;1265;59731;-76
2023/02/25 11:07:30;;;;;;;3.80;2.00;;;;;;;7.69;100.00;96849.49;105269;1263;59756;-75
2023/02/25 11:10:19;;;;;;;2.60;1.20;;;;;;;7.44;100.00;96855.23;105151;1263;65734;-76
2023/02/25 11:12:51;;;;;;;4.20;1.80;;;;;;;7.07;100.00;96856.54;105185;1263;61565;-75
2023/02/25 11:15:24;;;;;;;3.00;1.20;;;;;;;6.87;100.00;96862.70;105279;1265;64107;-75
2023/02/25 11:17:53;;;;;;;3.00;1.60;;;;;;;6.78;100.00;96870.20;105150;1265;59569;-76
2023/02/25 11:20:23;;;;;;;3.40;1.60;;;;;;;6.65;100.00;96878.15;105064;1268;59634;-75
2023/02/25 11:22:53;;;;;;;2.20;1.50;;;;;;;6.52;100.00;96879.43;105126;1263;65112;-76
2023/02/25 11:25:28;;;;;;;2.00;1.50;;;;;;;6.51;100.00;96879.52;105232;1265;61293;-76
2023/02/25 11:27:57;;;;;;;3.00;1.50;;;;;;;6.49;100.00;96877.94;105127;1265;65610;-75
2023/02/25 11:30:32;;;;;;;3.70;1.50;;;;;;;6.33;100.00;96884.04;105213;1263;59665;-75
2023/02/25 11:33:05;;;;;;;2.60;1.40;;;;;;;6.10;100.00;96883.86;105167;1265;59599;-76
2023/02/25 11:35:37;;;;;;;3.30;1.60;;;;;;;5.89;100.00;96883.77;105120;1263;64910;-76
2023/02/25 11:38:21;;;;;;;2.10;1.60;;;;;;;5.67;100.00;96873.71;105204;1263;60699;-76
2023/02/25 11:40:49;;;;;;;2.20;1.90;;;;;;;5.61;100.00;96866.98;104950;1266;64170;-74
2023/02/25 11:43:26;;;;;;;2.90;2.10;;;;;;;5.62;100.00;96866.88;105086;1263;59686;-75
2023/02/25 11:45:53;;;;;;;3.20;2.00;;;;;;;5.65;100.00;96864.57;105094;1263;60289;-76
2023/02/25 11:48:33;;;;;;;3.50;2.00;;;;;;;5.59;100.00;96862.02;105086;1263;65952;-74
2023/02/25 11:51:23;;;;;;;3.40;2.00;;;;;;;5.51;100.00;96869.58;105088;1262;60776;-75
2023/02/25 11:54:04;;;;;;;4.80;2.40;;;;;;;5.38;100.00;96884.20;104458;1271;64144;-75
2023/02/25 11:56:42;;;;;;;4.20;2.70;;;;;;;5.25;100.00;96899.63;104450;1272;59709;-75
2023/02/25 11:59:30;;;;;;;3.70;2.90;;;;;;;5.03;100.00;96904.02;104559;1271;59881;-76
2023/02/25 12:02:15;;;;;;;3.10;2.00;;;;;;;4.68;100.00;96916.04;104475;1270;65680;-76
2023/02/25 12:05:10;;;;;;;3.60;1.80;;;;;;;4.47;100.00;96913.95;104466;1272;61743;-76
2023/02/25 12:07:53;;;;;;;3.40;2.40;;;;;;;4.41;100.00;96910.48;104863;1270;64364;-75
2023/02/25 12:10:23;;;;;;;2.80;2.50;;;;;;;4.38;100.00;96909.28;104874;1270;59620;-75
2023/02/25 12:13:15;;;;;;;3.70;2.60;;;;;;;4.33;100.00;96913.76;104606;1268;59963;-75
2023/02/25 12:16:06;;;;;;;3.20;2.70;;;;;;;4.27;100.00;96930.39;104874;1269;64160;-75
2023/02/25 12:18:49;;;;;;;5.80;2.10;;;;;;;4.18;100.00;96941.95;104986;1268;60162;-76
2023/02/25 12:21:49;;;;;;;2.30;1.80;;;;;;;3.94;100.00;96944.05;104906;1269;65385;-76
2023/02/25 12:24:34;;;;;;;4.70;1.70;;;;;;;3.71;100.00;96951.73;104956;1267;59819;-76
2023/02/25 12:27:13;;;;;;;2.00;1.60;;;;;;;3.49;100.00;96946.22;104665;1273;59736;-75
2023/02/25 12:30:07;;;;;;;3.00;2.10;;;;;;;3.33;100.00;96944.73;104948;1265;64670;-75
2023/02/25 12:32:51;;;;;;;2.10;1.50;;;;;;;3.21;100.00;96952.09;105477;1256;61556;-75
2023/02/25 12:35:28;;;;;;;2.80;2.00;;;;;;;3.20;100.00;96942.16;105573;1259;64268;-76
2023/02/25 12:38:22;;;;;;;3.60;2.10;;;;;;;3.18;100.00;96945.46;105508;1259;59631;-76
2023/02/25 12:40:55;;;;;;;4.40;2.80;;;;;;;3.16;100.00;96961.55;105462;1259;60029;-76
2023/02/25 12:43:50;;;;;;;4.80;3.20;;;;;;;3.11;100.00;96967.18;105508;1259;65733;-76
2023/02/25 12:46:24;;;;;;;4.20;3.40;;;;;;;3.02;100.00;96981.48;105475;1259;61619;-77
2023/02/25 12:49:09;;;;;;;2.70;2.50;;;;;;;2.89;100.00;96966.09;105499;1255;65319;-76
2023/02/25 12:52:00;;;;;;;3.50;3.20;;;;;;;2.83;100.00;96964.17;105477;1257;59746;-76
2023/02/25 12:54:48;;;;;;;4.90;4.30;;;;;;;2.83;100.00;96973.27;105494;1256;59737;-75
2023/02/25 12:57:26;;;;;;;5.10;4.00;;;;;;;2.85;100.00;96970.54;105516;1257;64639;-77
2023/02/25 13:00:41;;;;;;;3.00;2.50;;;;;;;2.98;100.00;96968.42;105933;1250;60747;-75
2023/02/25 13:03:47;;;;;;;2.40;1.80;;;;;;;3.17;100.00;96972.57;106073;1250;65450;-76
2023/02/25 13:06:27;;;;;;;2.10;1.90;;;;;;;3.33;100.00;96969.50;105920;1254;59638;-76
2023/02/25 13:09:13;;;;;;;2.00;1.90;;;;;;;3.48;100.00;96969.30;105523;1258;59624;-76
2023/02/25 13:12:13;;;;;;;3.10;2.20;;;;;;;3.66;100.00;96972.91;105924;1256;66107;-75
2023/02/25 13:14:49;;;;;;;4.60;2.90;;;;;;;3.80;100.00;96974.95;105943;1254;61731;-75
2023/02/25 13:17:28;;;;;;;3.70;2.60;;;;;;;3.89;100.00;96978.52;105926;1255;65308;-75
2023/02/25 13:20:30;;;;;;;3.60;3.10;;;;;;;3.97;100.00;96981.08;105932;1256;59676;-76
2023/02/25 13:23:21;;;;;;;4.70;3.40;;;;;;;4.02;100.00;96983.16;105972;1250;59619;-75
2023/02/25 13:26:22;;;;;;;5.10;3.70;;;;;;;4.02;100.00;96988.12;105955;1256;64274;-76
2023/02/25 13:29:00;;;;;;;4.30;3.30;;;;;;;3.99;100.00;96990.12;105951;1255;60870;-76
2023/02/25 13:31:46;;;;;;;3.70;3.10;;;;;;;4.01;100.00;96994.69;106045;1254;64130;-76
2023/02/25 13:34:51;;;;;;;4.50;3.90;;;;;;;4.04;100.00;96998.88;105653;1250;59602;-78
2023/02/25 13:37:27;;;;;;;6.10;5.10;;;;;;;4.11;100.00;96996.77;105991;1255;60011;-74
2023/02/25 13:40:12;;;;;;;10.20;7.90;;;;;;;4.26;100.00;96994.80;105979;1255;65107;-76
2023/02/25 13:42:57;;;;;;;9.00;6.50;;;;;;;4.38;100.00;96999.49;106060;1256;61729;-77
2023/02/25 13:45:42;;;;;;;12.00;7.50;;;;;;;4.53;100.00;97001.95;106025;1250;65384;-77
2023/02/25 13:48:33;;;;;;;11.10;7.00;;;;;;;4.64;100.00;97003.95;106015;1255;59644;-78
2023/02/25 13:51:10;;;;;;;9.70;7.20;;;;;;;4.73;100.00;97005.52;106012;1254;59625;-75
2023/02/25 13:53:56;;;;;;;9.30;6.90;;;;;;;4.80;100.00;97009.19;105927;1254;65063;-75
2023/02/25 13:56:42;;;;;;;9.00;5.90;;;;;;;4.87;100.00;97009.76;106031;1255;60559;-77
2023/02/25 13:59:42;;;;;;;8.40;6.30;;;;;;;4.93;100.00;97011.45;105995;1250;65475;-77
2023/02/25 14:02:15;;;;;;;14.20;8.40;;;;;;;4.98;100.00;97012.93;105979;1255;59646;-75
2023/02/25 14:04:47;;;;;;;10.70;7.80;;;;;;;4.99;100.00;97012.93;105927;1256;59628;-75
2023/02/25 14:07:37;;;;;;;11.30;8.20;;;;;;;4.96;100.00;97016.64;105941;1250;64868;-75
2023/02/25 14:10:26;;;;;;;10.70;8.00;;;;;;;4.90;100.00;97023.83;105565;1258;61335;-77
2023/02/25 14:13:15;;;;;;;7.70;6.60;;;;;;;4.85;100.00;97028.95;106007;1250;65546;-76
2023/02/25 14:15:54;;;;;;;9.10;6.50;;;;;;;4.78;100.00;97033.98;106050;1256;59656;-77
2023/02/25 14:18:44;;;;;;;12.50;6.10;;;;;;;4.75;100.00;97029.10;105993;1251;59701;-76
2023/02/25 14:21:40;;;;;;;10.20;5.60;;;;;;;4.73;100.00;97033.17;105923;1255;65884;-76
2023/02/25 14:24:12;;;;;;;5.80;3.70;;;;;;;4.62;100.00;97044.38;106088;1256;60922;-76
2023/02/25 14:27:07;;;;;;;8.90;4.10;;;;;;;4.45;100.00;97057.38;105896;1253;65325;-75
2023/02/25 14:30:10;;;;;;;5.40;2.40;;;;;;;4.20;100.00;97055.14;105731;1254;59685;-74
2023/02/25 14:32:43;;;;;;;2.10;1.60;;;;;;;3.95;100.00;97055.15;105856;1253;59651;-76
2023/02/25 14:35:24;;;;;;;2.50;1.80;;;;;;;3.84;100.00;97061.96;105497;1261;64204;-76
2023/02/25 14:37:53;;;;;;;1.80;1.20;;;;;;;3.77;100.00;97063.34;105773;1256;61302;-75
2023/02/25 14:40:28;;;;;;;1.70;1.40;;;;;;;3.70;100.00;97070.46;105758;1254;64300;-75
2023/02/25 14:43:03;;;;;;;1.70;1.40;;;;;;;3.68;100.00;97079.06;105843;1256;59644;-74
2023/02/25 14:45:58;;;;;;;2.40;1.50;;;;;;;3.65;100.00;97083.49;105733;1253;59650;-75
2023/02/25 14:48:37;;;;;;;2.00;1.60;;;;;;;3.62;100.00;97088.76;105737;1255;66426;-75
2023/02/25 14:51:13;;;;;;;2.00;1.80;;;;;;;3.57;100.00;97094.77;105836;1255;59728;-77
2023/02/25 14:53:54;;;;;;;3.10;2.10;;;;;;;3.54;100.00;97101.99;105772;1253;64605;-76
2023/02/25 14:56:47;;;;;;;3.60;2.00;;;;;;;3.53;100.00;97098.20;105757;1253;59800;-75
2023/02/25 14:59:31;;;;;;;4.30;2.70;;;;;;;3.47;100.00;97086.77;105834;1253;59700;-75
2023/02/25 15:02:26;;;;;;;2.70;2.40;;;;;;;3.40;100.00;97091.32;105798;1253;62824;-76
2023/02/25 15:05:08;;;;;;;4.70;1.90;;;;;;;3.31;100.00;97092.85;105726;1252;61591;-75
2023/02/25 15:07:44;;;;;;;2.50;2.10;;;;;;;3.23;100.00;97094.46;105807;1253;65775;-76
2023/02/25 15:10:32;;;;;;;4.10;2.10;;;;;;;3.18;100.00;97095.84;105721;1253;60463;-76
2023/02/25 15:13:21;;;;;;;4.70;2.40;;;;;;;3.13;100.00;97094.46;105568;1258;60420;-75
2023/02/25 15:15:59;;;;;;;3.90;2.60;;;;;;;3.09;100.00;97101.86;105735;1253;74515;-75
2023/02/25 15:18:43;;;;;;;4.10;2.60;;;;;;;3.06;100.00;97099.41;105760;1256;60841;-75
2023/02/25 15:21:48;;;;;;;4.30;2.80;;;;;;;3.03;100.00;97099.60;105760;1256;64249;-75
2023/02/25 15:24:26;;;;;;;5.00;2.90;;;;;;;3.03;100.00;97101.41;105450;1260;60349;-76
2023/02/25 15:26:55;;;;;;;3.30;2.60;;;;;;;3.02;100.00;97104.06;108975;1260;58253;-75
2023/02/25 15:29:27;;;;;;;5.10;3.20;;;;;;;3.04;100.00;97110.98;108957;1260;64929;-75
2023/02/25 15:32:09;;;;;;;3.30;2.50;;;;;;;3.06;100.00;97117.66;108973;1260;60042;-75
2023/02/25 15:34:37;;;;;;;4.10;2.50;;;;;;;3.06;100.00;97130.14;108962;1258;63842;-76
2023/02/25 15:37:22;;;;;;;3.10;1.70;;;;;;;2.99;100.00;97131.46;108969;1260;58399;-74
2023/02/25 15:39:51;;;;;;;2.70;2.10;;;;;;;2.80;100.00;97134.66;109001;1259;58125;-75
2023/02/25 15:42:39;;;;;;;3.00;1.90;;;;;;;2.70;100.00;97134.48;108996;1259;65401;-75
2023/02/25 15:45:27;;;;;;;2.70;2.30;;;;;;;2.64;100.00;97137.98;108992;1258;61270;-75
2023/02/25 15:48:06;;;;;;;3.90;2.40;;;;;;;2.57;100.00;97139.67;108960;1258;64754;-75
2023/02/25 15:50:42;;;;;;;3.50;2.90;;;;;;;2.49;100.00;97140.89;108975;1260;58256;-75
2023/02/25 15:53:22;;;;;;;3.40;2.60;;;;;;;2.42;100.00;97142.17;108948;1262;58367;-76
2023/02/25 15:55:52;;;;;;;3.90;3.10;;;;;;;2.38;100.00;97154.91;109012;1259;65860;-75
2023/02/25 15:58:24;;;;;;;3.50;2.50;;;;;;;2.33;100.00;97159.98;109013;1259;61580;-75
2023/02/25 16:01:00;;;;;;;2.80;2.30;;;;;;;2.28;100.00;97169.24;108611;1253;1002348;-76
2023/02/25 16:03:30;;;;;;;4.40;2.80;;;;;;;2.24;100.00;97179.08;109449;1256;58126;-74
2023/02/25 16:06:07;;;;;;;6.50;2.50;;;;;;;2.21;100.00;97182.58;109462;1252;58216;-75
2023/02/25 16:08:41;;;;;;;4.60;2.80;;;;;;;2.18;100.00;97188.74;109507;1253;66189;-76
2023/02/25 16:11:22;;;;;;;3.30;2.70;;;;;;;2.14;100.00;97197.72;109510;1253;60724;-75
2023/02/25 16:13:50;;;;;;;3.60;2.70;;;;;;;2.12;100.00;97204.69;109476;1253;65389;-76
2023/02/25 16:16:18;;;;;;;4.00;2.80;;;;;;;2.15;100.00;97208.58;109427;1253;58337;-76
2023/02/25 16:18:49;;;;;;;3.00;2.70;;;;;;;2.17;100.00;97211.91;109470;1252;58140;-75
2023/02/25 16:21:30;;;;;;;3.60;2.50;;;;;;;2.20;100.00;97219.44;109470;1253;66383;-75
2023/02/25 16:23:58;;;;;;;2.90;2.40;;;;;;;2.21;100.00;97224.14;109471;1253;59781;-75
2023/02/25 16:26:41;;;;;;;4.10;2.60;;;;;;;2.18;100.00;97226.04;109452;1253;64782;-75
2023/02/25 16:29:33;;;;;;;3.50;2.70;;;;;;;2.12;100.00;97225.52;109368;1253;58221;-75
2023/02/25 16:32:31;;;;;;;2.20;1.80;;;;;;;2.07;100.00;97227.77;107914;1253;1002762;-75
2023/02/25 16:35:31;;;;;;;2.30;2.10;;;;;;;2.02;100.00;97239.48;108881;1259;66236;-76
2023/02/25 16:38:19;;;;;;;2.00;1.60;;;;;;;1.97;100.00;97243.30;108583;1266;61199;-76
2023/02/25 16:40:46;;;;;;;3.00;1.60;;;;;;;1.94;100.00;97245.57;108568;1266;65410;-76
2023/02/25 16:43:17;;;;;;;3.90;2.20;;;;;;;1.91;100.00;97249.77;108570;1266;58231;-75
2023/02/25 16:45:56;;;;;;;2.70;2.10;;;;;;;1.88;100.00;97252.20;108586;1266;58352;-76
2023/02/25 16:48:33;;;;;;;3.70;2.50;;;;;;;1.86;100.00;97254.48;108572;1267;66245;-75
2023/02/25 16:51:09;;;;;;;2.70;1.80;;;;;;;1.85;100.00;97258.01;108601;1266;59843;-75
2023/02/25 16:53:42;;;;;;;2.90;2.10;;;;;;;1.86;100.00;97271.08;108567;1267;64060;-75
2023/02/25 16:56:18;;;;;;;3.60;2.10;;;;;;;1.87;100.00;97274.35;108115;1268;58283;-75
2023/02/25 16:59:05;;;;;;;4.30;2.40;;;;;;;1.90;100.00;97280.46;108568;1266;58295;-75
2023/02/25 17:01:35;;;;;;;3.10;2.70;;;;;;;1.94;100.00;97286.71;108591;1266;64847;-75
2023/02/25 17:04:14;;;;;;;3.40;2.30;;;;;;;1.96;100.00;97285.03;108472;1267;60890;-75
2023/02/25 17:06:41;;;;;;;4.00;2.60;;;;;;;1.97;100.00;97289.48;108546;1267;63854;-75
2023/02/25 17:09:21;;;;;;;3.70;3.00;;;;;;;1.99;100.00;97290.81;108615;1266;58264;-75
2023/02/25 17:11:53;;;;;;;3.30;2.70;;;;;;;2.00;100.00;97294.94;108568;1258;58149;-75
2023/02/25 17:14:21;;;;;;;4.70;2.90;;;;;;;2.03;100.00;97301.45;109146;1252;65136;-75
2023/02/25 17:16:48;;;;;;;3.60;3.10;;;;;;;2.03;100.00;97305.10;109508;1252;60136;-76
2023/02/25 17:19:19;;;;;;;5.10;3.20;;;;;;;2.03;100.00;97306.33;109475;1253;64083;-76
2023/02/25 17:21:53;;;;;;;4.60;3.00;;;;;;;2.04;100.00;97318.56;109535;1252;58473;-76
2023/02/25 17:24:25;;;;;;;4.70;3.50;;;;;;;2.04;100.00;97318.55;109489;1253;58174;-76
2023/02/25 17:26:53;;;;;;;4.20;3.10;;;;;;;2.05;100.00;97321.46;109472;1254;65443;-75
2023/02/25 17:29:20;;;;;;;7.40;4.90;;;;;;;2.04;100.00;97326.19;109498;1252;61268;-75
2023/02/25 17:31:53;;;;;;;5.50;4.00;;;;;;;2.05;100.00;97323.91;109437;1254;64904;-76
2023/02/25 17:34:31;;;;;;;11.00;7.50;;;;;;;2.05;100.00;97325.45;109464;1252;58417;-76
2023/02/25 17:37:03;;;;;;;11.30;5.40;;;;;;;2.05;100.00;97332.27;109576;1251;58217;-76
2023/02/25 17:39:30;;;;;;;7.60;4.70;;;;;;;2.06;100.00;97334.54;109497;1255;65302;-75
2023/02/25 17:41:57;;;;;;;5.20;4.40;;;;;;;2.06;100.00;97341.36;109550;1252;60738;-75
2023/02/25 17:44:36;;;;;;;4.90;4.00;;;;;;;2.05;100.00;97343.48;109495;1251;64820;-75
2023/02/25 17:47:05;;;;;;;4.50;4.10;;;;;;;2.06;100.00;97347.16;109345;1251;58237;-75
2023/02/25 17:49:34;;;;;;;4.30;3.90;;;;;;;2.06;100.00;97352.78;109543;1251;58155;-75
2023/02/25 17:52:05;;;;;;;4.80;4.20;;;;;;;2.06;100.00;97359.95;109554;1251;65934;-75
2023/02/25 17:54:34;;;;;;;7.60;5.70;;;;;;;2.07;100.00;97364.25;109565;1251;60030;-76
2023/02/25 17:57:13;;;;;;;8.80;6.10;;;;;;;2.08;100.00;97368.90;109601;1251;64135;-75
2023/02/25 17:59:42;;;;;;;6.70;5.70;;;;;;;2.10;100.00;97371.09;109643;1251;58226;-75
2023/02/25 18:02:36;;;;;;;8.80;6.30;;;;;;;2.10;100.00;97370.90;109296;1251;58265;-75
2023/02/25 18:05:11;;;;;;;11.80;8.40;;;;;;;2.10;100.00;97374.91;108976;1260;66177;-76
2023/02/25 18:08:00;;;;;;;10.30;8.20;;;;;;;2.10;100.00;97378.95;108910;1260;58485;-75
2023/02/25 18:10:30;;;;;;;7.90;5.80;;;;;;;2.10;100.00;97381.23;108981;1260;64104;-75
2023/02/25 18:13:02;;;;;;;8.60;5.90;;;;;;;2.11;100.00;97384.87;108979;1258;58439;-75
2023/02/25 18:15:32;;;;;;;8.10;6.30;;;;;;;2.12;100.00;97390.08;109015;1259;58298;-75
2023/02/25 18:18:04;;;;;;;5.40;4.10;;;;;;;2.12;100.00;97394.23;108985;1259;66603;-76
2023/02/25 18:20:36;;;;;;;6.20;5.60;;;;;;;2.12;100.00;97396.34;108970;1261;60749;-76
2023/02/25 18:23:16;;;;;;;4.40;3.50;;;;;;;2.12;100.00;97401.57;108969;1258;64836;-76
2023/02/25 18:25:46;;;;;;;6.20;4.50;;;;;;;2.12;100.00;97400.40;108801;1259;58385;-75
2023/02/25 18:28:14;;;;;;;5.20;4.60;;;;;;;2.12;100.00;97402.66;108916;1260;58450;-75
2023/02/25 18:30:43;;;;;;;5.30;4.80;;;;;;;2.13;100.00;97405.06;108982;1260;66456;-75
2023/02/25 18:33:10;;;;;;;5.70;4.90;;;;;;;2.13;100.00;97409.08;109006;1259;60932;-75
2023/02/25 18:35:43;;;;;;;4.90;4.40;;;;;;;2.12;100.00;97411.91;108994;1260;65026;-76
2023/02/25 18:38:17;;;;;;;4.70;4.30;;;;;;;2.13;100.00;97418.90;108965;1259;58249;-76
2023/02/25 18:40:44;;;;;;;6.20;5.60;;;;;;;2.12;100.00;97418.04;108957;1259;58316;-76
2023/02/25 18:43:16;;;;;;;5.30;4.80;;;;;;;2.13;100.00;97420.84;109451;1251;66373;-76
2023/02/25 18:45:43;;;;;;;5.10;4.60;;;;;;;2.14;100.00;97428.31;109573;1251;59725;-76
2023/02/25 18:48:09;;;;;;;4.70;4.20;;;;;;;2.13;100.00;97426.95;109517;1251;62709;-75
2023/02/25 18:50:39;;;;;;;5.30;4.80;;;;;;;2.11;100.00;97428.10;109537;1251;58177;-76
2023/02/25 18:53:05;;;;;;;6.20;5.60;;;;;;;2.12;100.00;97430.69;109530;1251;58034;-76
2023/02/25 18:55:32;;;;;;;7.80;5.90;;;;;;;2.12;100.00;97438.04;109524;1251;65947;-76
2023/02/25 18:57:59;;;;;;;5.00;4.50;;;;;;;2.12;100.00;97436.46;109589;1251;60033;-75
2023/02/25 19:00:27;;;;;;;5.90;5.30;;;;;;;2.11;100.00;97434.79;109539;1251;65197;-76
2023/02/25 19:02:57;;;;;;;5.70;5.20;;;;;;;2.09;100.00;97435.59;109550;1251;58237;-76
2023/02/25 19:05:24;;;;;;;6.60;4.80;;;;;;;2.08;100.00;97439.69;109499;1251;58050;-75
2023/02/25 19:07:52;;;;;;;5.20;4.70;;;;;;;2.08;100.00;97440.70;109588;1251;66447;-76
2023/02/25 19:10:29;;;;;;;5.20;4.70;;;;;;;2.08;100.00;97440.73;109547;1251;60931;-76
2023/02/25 19:13:05;;;;;;;6.00;5.30;;;;;;;2.07;100.00;97446.38;109290;1251;63702;-76
2023/02/25 19:15:33;;;;;;;7.80;6.00;;;;;;;2.06;100.00;97448.03;109526;1251;58173;-76
2023/02/25 19:17:59;;;;;;;6.70;5.90;;;;;;;2.06;100.00;97449.64;108622;1251;1002589;-75
2023/02/25 19:20:26;;;;;;;5.20;4.60;;;;;;;2.05;100.00;97447.38;109559;1251;65961;-76
2023/02/25 19:22:53;;;;;;;4.80;4.40;;;;;;;2.03;100.00;97448.56;109605;1251;60723;-75
2023/02/25 19:25:33;;;;;;;5.10;4.40;;;;;;;1.99;100.00;97451.73;109561;1251;65494;-75
2023/02/25 19:28:00;;;;;;;5.40;4.90;;;;;;;1.96;100.00;97452.46;109533;1251;58152;-75
2023/02/25 19:30:33;;;;;;;4.80;4.40;;;;;;;1.93;100.00;97453.88;109536;1251;58182;-76
2023/02/25 19:33:02;;;;;;;5.80;5.20;;;;;;;1.91;100.00;97460.83;109520;1251;64936;-75
2023/02/25 19:35:32;;;;;;;5.40;4.80;;;;;;;1.89;100.00;97460.89;109597;1250;59798;-75
2023/02/25 19:37:59;;;;;;;;;;;;;;;1.89;100.00;97464.77;109589;1251;63749;-76
2023/02/25 19:40:27;;;;;;;5.50;5.00;;;;;;;1.87;100.00;97466.27;109505;1251;58204;-75
2023/02/25 19:42:54;;;;;;;7.90;5.70;;;;;;;1.86;100.00;97467.73;109559;1251;58141;-75
2023/02/25 19:45:23;;;;;;;7.70;6.40;;;;;;;1.85;100.00;97466.39;109546;1251;66113;-75
2023/02/25 19:47:51;;;;;;;5.80;5.20;;;;;;;1.83;100.00;97465.27;109550;1251;59973;-75
2023/02/25 19:50:19;;;;;;;6.70;6.00;;;;;;;1.83;100.00;97469.33;109581;1251;64304;-76
2023/02/25 19:52:46;;;;;;;6.50;5.90;;;;;;;1.83;100.00;97470.86;109375;1251;58149;-75
2023/02/25 19:55:13;;;;;;;7.30;5.80;;;;;;;1.83;100.00;97471.96;109564;1251;58266;-74
2023/02/25 19:57:40;;;;;;;6.40;5.50;;;;;;;1.84;100.00;97472.05;109593;1251;66325;-75
2023/02/25 20:00:16;;;;;;;7.10;5.10;;;;;;;1.84;100.00;97477.65;109580;1251;60046;-75
2023/02/25 20:02:43;;;;;;;11.80;7.50;;;;;;;1.83;100.00;97478.94;109557;1251;64918;-75
2023/02/25 20:05:12;;;;;;;6.70;6.10;;;;;;;1.82;100.00;97480.55;109500;1250;58156;-75
2023/02/25 20:07:42;;;;;;;12.60;8.50;;;;;;;1.81;100.00;97481.83;109569;1251;58052;-76
2023/02/25 20:10:13;;;;;;;9.70;7.50;;;;;;;1.81;100.00;97487.42;109541;1250;65494;-76
2023/02/25 20:12:41;;;;;;;8.70;7.30;;;;;;;1.80;100.00;97493.11;109447;1251;59814;-76
2023/02/25 20:15:10;;;;;;;10.30;7.80;;;;;;;1.79;100.00;97496.31;109588;1251;64309;-75
2023/02/25 20:17:39;;;;;;;10.70;7.70;;;;;;;1.76;100.00;97502.60;109331;1251;58204;-75
2023/02/25 20:20:07;;;;;;;9.10;6.80;;;;;;;1.73;100.00;97508.02;109566;1251;58037;-75
2023/02/25 20:22:35;;;;;;;9.10;7.20;;;;;;;1.69;100.00;97509.97;109227;1251;66358;-75
2023/02/25 20:25:03;;;;;;;10.00;8.20;;;;;;;1.66;100.00;97508.55;109588;1251;60716;-75
2023/02/25 20:27:29;;;;;;;10.70;9.00;;;;;;;1.65;100.00;97512.17;109319;1251;65385;-76
2023/02/25 20:29:56;;;;;;;9.20;8.30;;;;;;;1.63;100.00;97510.88;109540;1251;58383;-75
2023/02/25 20:32:23;;;;;;;9.30;8.40;;;;;;;1.60;100.00;97512.80;109542;1251;58373;-76
2023/02/25 20:34:50;;;;;;;8.40;7.60;;;;;;;1.57;100.00;97511.91;109571;1251;66292;-75
2023/02/25 20:37:22;;;;;;;9.50;8.60;;;;;;;1.52;100.00;97511.24;109562;1251;59829;-75
2023/02/25 20:39:53;;;;;;;7.80;7.10;;;;;;;1.50;100.00;97516.30;109535;1251;65063;-76
2023/02/25 20:42:22;;;;;;;8.80;7.80;;;;;;;1.46;100.00;97517.54;109562;1251;58122;-75
2023/02/25 20:44:50;;;;;;;8.50;7.50;;;;;;;1.42;100.00;97520.73;109595;1251;58081;-76
2023/02/25 20:47:24;;;;;;;8.10;7.30;;;;;;;1.38;100.00;97525.15;109529;1251;65035;-75
2023/02/25 20:49:52;;;;;;;9.60;7.00;;;;;;;1.35;100.00;97529.70;109571;1251;60151;-75
2023/02/25 20:52:20;;;;;;;9.20;8.30;;;;;;;1.33;100.00;97537.16;109290;1251;64024;-74
2023/02/25 20:54:48;;;;;;;11.10;10.00;;;;;;;1.30;100.00;97541.83;109468;1251;58195;-75
2023/02/25 20:57:18;;;;;;;11.80;10.20;;;;;;;1.28;100.00;97545.81;109325;1251;58193;-76
2023/02/25 20:59:47;;;;;;;14.80;11.50;;;;;;;1.25;100.00;97548.92;109563;1250;65250;-74
2023/02/25 21:02:14;;;;;;;12.50;11.10;;;;;;;1.24;100.00;97553.15;109577;1251;60307;-78
2023/02/25 21:04:42;;;;;;;10.20;9.20;;;;;;;1.24;100.00;97551.41;109323;1251;65625;-76
2023/02/25 21:07:09;;;;;;;12.70;11.10;;;;;;;1.22;100.00;97548.05;109521;1251;58112;-75
2023/02/25 21:09:39;;;;;;;15.20;11.40;;;;;;;1.21;100.00;97548.99;109564;1251;58220;-75
2023/02/25 21:12:06;;;;;;;12.80;10.60;;;;;;;1.20;100.00;97549.02;109489;1251;65192;-76
2023/02/25 21:14:33;;;;;;;12.90;11.20;;;;;;;1.19;100.00;97546.99;109590;1251;60985;-75
2023/02/25 21:17:00;;;;;;;10.50;9.40;;;;;;;1.17;100.00;97543.63;109330;1251;64104;-75
2023/02/25 21:19:27;;;;;;;11.00;9.70;;;;;;;1.15;100.00;97544.75;109551;1251;58156;-75
2023/02/25 21:21:54;;;;;;;10.70;9.60;;;;;;;1.12;100.00;97547.53;109547;1251;58082;-75
2023/02/25 21:24:21;;;;;;;10.80;9.70;;;;;;;1.09;100.00;97547.68;109581;1250;66107;-75
2023/02/25 21:26:48;;;;;;;9.60;8.60;;;;;;;1.08;100.00;97553.34;109616;1251;60780;-75
2023/02/25 21:29:15;;;;;;;10.20;9.10;;;;;;;1.07;100.00;97554.95;109545;1251;63991;-76
2023/02/25 21:31:42;;;;;;;9.20;7.70;;;;;;;1.07;100.00;97557.23;109536;1251;58177;-75
2023/02/25 21:34:11;;;;;;;11.30;9.60;;;;;;;1.05;100.00;97559.96;109590;1251;58098;-75
2023/02/25 21:36:40;;;;;;;9.90;8.60;;;;;;;1.05;100.00;97564.12;109485;1251;66312;-76
2023/02/25 21:39:11;;;;;;;14.40;11.20;;;;;;;1.05;100.00;97566.43;109563;1251;61316;-75
2023/02/25 21:41:40;;;;;;;13.10;10.30;;;;;;;1.04;100.00;97570.65;109573;1250;65302;-75
2023/02/25 21:44:12;;;;;;;13.20;10.30;;;;;;;1.03;100.00;97571.08;109423;1251;58231;-76
2023/02/25 21:46:39;;;;;;;11.30;10.20;;;;;;;1.02;100.00;97572.52;109591;1251;58679;-76
2023/02/25 21:49:06;;;;;;;12.40;11.10;;;;;;;1.01;100.00;97573.48;109550;1251;66601;-76
2023/02/25 21:51:32;;;;;;;14.30;12.40;;;;;;;1.00;100.00;97570.86;109613;1251;59913;-75
2023/02/25 21:54:00;;;;;;;16.90;14.30;;;;;;;1.00;100.00;97574.38;109527;1251;65107;-76
2023/02/25 21:56:28;;;;;;;17.00;14.50;;;;;;;0.98;100.00;97577.77;109525;1251;58135;-74
2023/02/25 21:58:57;;;;;;;16.40;13.30;;;;;;;0.97;100.00;97582.05;109530;1251;58217;-75
2023/02/25 22:01:30;;;;;;;15.90;13.90;;;;;;;0.95;100.00;97584.42;109199;1251;64999;-75
2023/02/25 22:03:59;;;;;;;15.50;12.70;;;;;;;0.94;100.00;97590.94;109455;1251;58789;-73
2023/02/25 22:06:26;;;;;;;14.20;12.70;;;;;;;0.93;100.00;97595.39;109537;1251;64039;-76
2023/02/25 22:08:53;;;;;;;15.10;12.00;;;;;;;0.92;100.00;97601.04;109506;1250;58167;-76
2023/02/25 22:11:29;;;;;;;13.10;11.40;;;;;;;0.91;100.00;97602.84;109527;1251;58275;-76
2023/02/25 22:14:01;;;;;;;11.90;10.60;;;;;;;0.89;100.00;97609.02;109559;1251;66240;-76
2023/02/25 22:16:28;;;;;;;13.30;10.50;;;;;;;0.88;100.00;97618.31;109558;1251;61041;-75
2023/02/25 22:18:56;;;;;;;12.00;10.70;;;;;;;0.88;100.00;97623.75;109505;1251;63721;-76
2023/02/25 22:21:26;;;;;;;14.00;12.50;;;;;;;0.88;100.00;97621.33;109531;1251;58379;-76
2023/02/25 22:23:55;;;;;;;12.10;10.60;;;;;;;0.87;100.00;97626.59;109588;1251;58081;-75